Time;durP1;ratioP1;P1;durP2;ratioP2;P2;SDS_P1;SDS_P2;PMS_P1;PMS_P2;Temp;Humidity;BMP_temperature;BMP_pressure;BME280_temperature;BME280_humidity;BME280_pressure;Samples;Min_cycle;Max_cycle;Signal;HPM_P1;HPM_P2
2023/12/26 00:02:20;;;;;;;4.25;1.70;;;10.10;99.90;;;8.20;100.00;100113.56;4975166;28;20137;-79
2023/12/26 00:04:48;;;;;;;3.80;2.03;;;10.10;99.90;;;8.35;100.00;100141.22;4977981;28;20149;-79
2023/12/26 00:07:15;;;;;;;3.55;2.30;;;10.10;99.90;;;8.32;100.00;100137.78;4964345;28;20049;-80
2023/12/26 00:09:42;;;;;;;3.15;1.83;;;10.10;99.90;;;8.40;100.00;100154.25;4981351;28;20046;-80
2023/12/26 00:12:10;;;;;;;6.47;2.70;;;10.10;99.90;;;8.51;100.00;100170.69;4990761;28;20790;-80
2023/12/26 00:14:37;;;;;;;5.45;2.10;;;10.10;99.90;;;8.62;100.00;100201.09;4964450;28;20068;-82
2023/12/26 00:17:04;;;;;;;3.30;1.80;;;10.10;99.90;;;8.78;100.00;100209.53;4957475;28;20057;-79
2023/12/26 00:19:32;;;;;;;3.88;2.90;;;10.00;99.90;;;8.26;100.00;100140.53;4968187;28;20053;-82
2023/12/26 00:21:59;;;;;;;4.78;1.77;;;10.00;99.90;;;8.43;100.00;100155.94;4969251;28;20041;-78
2023/12/26 00:24:27;;;;;;;2.65;2.15;;;9.90;99.90;;;8.33;100.00;100134.28;4974541;28;20064;-78
2023/12/26 00:26:54;;;;;;;4.18;2.20;;;10.00;99.90;;;8.43;100.00;100146.31;4974265;28;20042;-79
2023/12/26 00:29:21;;;;;;;4.00;1.98;;;10.00;99.90;;;8.38;100.00;100141.16;4982778;28;20137;-78
2023/12/26 00:31:48;;;;;;;4.25;2.15;;;10.00;99.90;;;8.50;100.00;100157.59;4970196;28;20049;-79
2023/12/26 00:34:15;;;;;;;4.35;2.17;;;10.00;99.90;;;8.78;100.00;100197.28;4985980;28;20042;-79
2023/12/26 00:36:43;;;;;;;5.53;2.17;;;10.00;99.90;;;8.57;100.00;100176.72;4973167;28;20042;-79
2023/12/26 00:39:11;;;;;;;3.10;2.00;;;10.00;99.90;;;8.57;100.00;100158.34;4990043;28;20048;-79
2023/12/26 00:41:38;;;;;;;4.85;2.38;;;10.00;99.90;;;8.35;100.00;100141.22;4975838;28;20045;-80
2023/12/26 00:44:06;;;;;;;3.97;2.40;;;10.00;99.90;;;8.67;100.00;100194.00;4982882;28;20038;-79
2023/12/26 00:46:33;;;;;;;4.88;2.60;;;10.00;99.90;;;8.69;100.00;100215.81;4977313;28;20056;-79
2023/12/26 00:49:01;;;;;;;5.20;2.22;;;9.90;99.90;;;8.76;100.00;100216.56;4973540;28;20037;-79
2023/12/26 00:51:31;;;;;;;3.88;2.10;;;9.90;99.90;;;8.88;100.00;100247.81;4994628;28;20054;-79
2023/12/26 00:53:58;;;;;;;3.58;2.10;;;10.00;99.90;;;8.73;100.00;100220.13;4977870;28;20045;-79
2023/12/26 00:56:27;;;;;;;3.45;2.00;;;9.90;99.90;;;8.60;100.00;100202.88;5009611;28;20049;-78
2023/12/26 00:58:54;;;;;;;3.92;2.03;;;9.90;99.90;;;8.48;100.00;100175.94;4977387;28;20501;-79
2023/12/26 01:01:25;;;;;;;4.55;1.92;;;9.90;99.90;;;8.73;100.00;100225.34;4993679;28;20052;-78
2023/12/26 01:03:53;;;;;;;3.78;2.03;;;9.90;99.90;;;8.74;100.00;100223.59;4977309;28;20081;-78
2023/12/26 01:06:20;;;;;;;3.92;3.00;;;10.10;99.90;;;8.80;100.00;100228.72;4989101;28;20053;-78
2023/12/26 01:08:47;;;;;;;4.80;2.42;;;9.90;99.90;;;8.72;100.00;100225.38;4973164;28;20042;-78
2023/12/26 01:11:17;;;;;;;3.50;2.00;;;9.90;99.90;;;8.64;100.00;100209.78;4973042;28;20049;-78
2023/12/26 01:13:44;;;;;;;9.48;2.97;;;9.90;99.90;;;8.62;100.00;100225.56;4980970;28;20050;-78
2023/12/26 01:16:19;;;;;;;4.55;2.85;;;9.90;99.90;;;8.65;100.00;100224.63;4973523;28;20058;-78
2023/12/26 01:18:46;;;;;;;4.88;2.08;;;9.90;99.90;;;8.71;100.00;100219.28;4949126;28;20069;-78
2023/12/26 01:21:14;;;;;;;3.35;2.17;;;9.90;99.90;;;8.87;100.00;100245.22;4975953;28;20547;-78
2023/12/26 01:23:41;;;;;;;4.25;2.47;;;9.90;99.90;;;8.68;100.00;100221.97;4989338;28;20114;-78
2023/12/26 01:26:09;;;;;;;6.32;2.70;;;9.90;99.90;;;8.72;100.00;100218.38;4970094;28;20053;-79
2023/12/26 01:28:36;;;;;;;2.75;1.92;;;9.90;99.90;;;8.68;100.00;100221.97;4994071;28;20042;-79
2023/12/26 01:31:04;;;;;;;7.38;1.98;;;9.90;99.90;;;8.83;100.00;100238.31;4967098;28;20073;-78
2023/12/26 01:33:32;;;;;;;2.47;2.15;;;10.00;99.90;;;8.88;100.00;100262.69;4996333;28;20115;-78
2023/12/26 01:35:59;;;;;;;6.45;2.45;;;10.00;99.90;;;8.97;100.00;100273.00;4976286;28;20050;-77
2023/12/26 01:38:30;;;;;;;4.72;2.13;;;10.00;99.90;;;8.79;100.00;100240.13;4993101;28;20189;-78
2023/12/26 01:40:57;;;;;;;3.55;2.05;;;10.00;99.90;;;8.97;100.00;100267.75;4961891;28;20042;-77
2023/12/26 01:43:24;;;;;;;3.80;2.05;;;10.10;99.90;;;9.04;100.00;100282.50;5011420;28;20436;-78
2023/12/26 01:45:57;;;;;;;4.45;2.00;;;10.10;99.90;;;9.16;100.00;100270.91;4993131;28;20492;-77
2023/12/26 01:48:27;;;;;;;1.85;1.52;;;10.20;99.90;;;8.86;100.00;100240.88;4978115;28;20038;-78
2023/12/26 01:50:55;;;;;;;5.38;1.70;;;10.20;99.90;;;9.16;100.00;100262.16;4981556;28;20050;-77
2023/12/26 01:53:22;;;;;;;5.18;2.03;;;10.30;99.90;;;9.19;100.00;100264.72;4991928;28;20073;-78
2023/12/26 01:55:50;;;;;;;3.38;2.15;;;10.30;99.90;;;9.22;100.00;100262.91;4983836;28;20113;-79
2023/12/26 01:58:17;;;;;;;3.72;1.90;;;10.40;99.90;;;9.20;100.00;100276.97;4977445;28;20049;-78
2023/12/26 02:00:44;;;;;;;4.38;2.10;;;10.30;99.90;;;9.24;100.00;100275.16;4977505;28;20069;-79
2023/12/26 02:03:12;;;;;;;6.82;2.00;;;10.30;99.90;;;9.13;100.00;100265.72;4977659;28;20042;-78
2023/12/26 02:05:42;;;;;;;4.38;1.92;;;11.00;99.90;;;9.19;100.00;100272.59;4961285;28;20053;-78
2023/12/26 02:08:11;;;;;;;4.85;1.95;;;10.30;99.90;;;9.24;100.00;100304.03;4979265;28;20132;-79
2023/12/26 02:10:45;;;;;;;7.45;2.53;;;10.30;99.90;;;9.26;100.00;100270.72;4970621;28;20050;-78
2023/12/26 02:13:13;;;;;;;5.00;1.98;;;10.40;99.90;;;9.37;100.00;100289.75;4970001;28;20180;-78
2023/12/26 02:15:44;;;;;;;5.35;2.28;;;10.40;92.80;;;8.97;100.00;100231.00;4991546;28;20050;-78
2023/12/26 02:18:12;;;;;;;5.13;2.28;;;10.40;19.40;;;9.36;100.00;100278.38;4976207;28;20164;-78
2023/12/26 02:20:39;;;;;;;5.47;2.40;;;10.40;1.00;;;9.38;100.00;100269.59;4975752;28;20037;-77
2023/12/26 02:23:06;;;;;;;5.70;2.53;;;10.40;1.00;;;9.41;100.00;100299.28;4988537;28;20057;-78
2023/12/26 02:25:33;;;;;;;7.38;2.65;;;10.40;1.00;;;9.31;100.00;100288.13;4987641;28;20165;-78
2023/12/26 02:28:02;;;;;;;10.73;2.50;;;10.40;99.90;;;9.09;100.00;100237.81;4976191;28;20488;-77
2023/12/26 02:30:31;;;;;;;5.05;2.50;;;10.50;99.90;;;9.27;100.00;100267.19;4985286;28;20046;-78
2023/12/26 02:33:02;;;;;;;5.80;2.13;;;10.50;99.90;;;9.33;100.00;100277.56;4992816;28;20053;-77
2023/12/26 02:35:30;;;;;;;4.53;2.00;;;10.50;99.90;;;9.38;100.00;100275.72;4956016;28;20050;-78
2023/12/26 02:38:00;;;;;;;9.55;3.22;;;10.50;1.00;;;9.54;100.00;100299.91;4991403;28;20060;-77
2023/12/26 02:40:27;;;;;;;4.07;2.00;;;10.60;1.00;;;9.45;100.00;100274.69;4974428;28;20045;-78
2023/12/26 02:42:55;;;;;;;6.40;2.30;;;10.60;99.90;;;9.41;100.00;100277.41;4991889;28;20811;-78
2023/12/26 02:45:22;;;;;;;4.65;2.00;;;10.60;99.90;;;9.50;100.00;100288.59;4974435;28;20050;-78
2023/12/26 02:47:49;;;;;;;4.95;2.40;;;10.60;99.90;;;9.19;100.00;100252.44;4976885;28;20125;-78
2023/12/26 02:50:18;;;;;;;7.18;2.42;;;10.50;3.50;;;9.28;100.00;100247.94;4982410;28;20049;-78
2023/12/26 02:52:45;;;;;;;6.70;2.72;;;10.60;1.00;;;9.45;100.00;100265.97;4990752;28;20045;-78
2023/12/26 02:55:12;;;;;;;4.65;2.22;;;10.60;1.00;;;9.49;100.00;100305.25;4978352;28;20066;-78
2023/12/26 02:57:39;;;;;;;4.88;2.53;;;10.60;99.90;;;9.44;100.00;100272.09;4978612;28;20177;-78
2023/12/26 03:00:07;;;;;;;4.93;2.22;;;10.60;99.90;;;9.62;100.00;100298.00;4974330;28;20050;-77
2023/12/26 03:02:34;;;;;;;6.18;2.17;;;10.60;99.90;;;9.51;100.00;100279.81;4990276;28;20464;-77
2023/12/26 03:05:03;;;;;;;3.40;2.28;;;10.70;99.90;;;9.61;100.00;100292.75;4981469;28;20046;-77
2023/12/26 03:07:30;;;;;;;8.15;2.95;;;10.60;99.90;;;9.50;100.00;100285.97;5005867;28;20046;-77
2023/12/26 03:09:57;;;;;;;6.88;2.58;;;10.70;99.90;;;9.50;100.00;100296.47;4965859;28;20038;-77
2023/12/26 03:12:24;;;;;;;6.57;2.42;;;10.60;99.90;;;9.49;100.00;100304.41;4974072;28;20049;-77
2023/12/26 03:14:51;;;;;;;5.05;2.03;;;10.60;99.90;;;9.39;100.00;100287.09;4982027;28;20074;-77
2023/12/26 03:17:18;;;;;;;4.88;1.75;;;10.60;1.00;;;9.27;100.00;100269.81;4990514;28;20052;-77
2023/12/26 03:19:45;;;;;;;4.18;1.92;;;10.50;1.00;;;9.42;100.00;100294.91;4965298;28;20077;-77
2023/12/26 03:22:16;;;;;;;6.22;2.30;;;10.50;1.00;;;9.41;100.00;100307.19;5010623;28;20049;-77
2023/12/26 03:24:43;;;;;;;;;;;10.50;1.00;;;9.15;100.00;100270.94;4983498;28;20050;-78
2023/12/26 03:27:10;;;;;;;7.25;2.10;;;10.50;1.00;;;9.38;100.00;100306.38;4959744;28;19925;-78
2023/12/26 03:29:38;;;;;;;7.65;2.83;;;10.50;1.00;;;9.34;100.00;100314.31;4993593;28;20052;-78
2023/12/26 03:32:07;;;;;;;5.22;2.30;;;10.40;1.00;;;9.35;100.00;100310.78;4985521;28;20038;-78
2023/12/26 03:34:37;;;;;;;3.65;1.75;;;10.40;13.90;;;9.13;100.00;100291.97;4978098;28;20128;-78
2023/12/26 03:37:04;;;;;;;3.70;2.20;;;10.40;5.10;;;9.23;100.00;100303.16;4977505;28;20049;-78
2023/12/26 03:39:32;;;;;;;3.75;2.00;;;10.40;78.80;;;8.96;100.00;100273.91;4994067;28;20080;-78
2023/12/26 03:42:00;;;;;;;4.40;2.30;;;10.30;80.60;;;9.16;100.00;100320.78;4977185;28;20133;-78
2023/12/26 03:44:27;;;;;;;5.80;2.70;;;10.30;96.50;;;9.01;100.00;100290.44;4976932;28;20584;-78
2023/12/26 03:46:54;;;;;;;6.15;2.45;;;10.30;81.00;;;8.96;100.00;100284.41;4976314;28;20049;-78
2023/12/26 03:49:21;;;;;;;4.97;2.47;;;10.30;94.70;;;9.14;100.00;100314.69;4969706;28;20065;-78
2023/12/26 03:51:53;;;;;;;5.15;2.20;;;10.40;49.50;;;9.26;100.00;100342.47;4959683;28;20060;-78
2023/12/26 03:54:22;;;;;;;5.85;2.10;;;10.40;98.60;;;9.09;100.00;100306.03;4977971;28;20046;-79
2023/12/26 03:56:49;;;;;;;8.55;2.40;;;10.30;99.90;;;9.17;100.00;100319.03;4976472;28;20060;-78
2023/12/26 03:59:16;;;;;;;6.13;2.20;;;10.30;99.90;;;9.04;100.00;100294.75;4986671;28;20058;-76
2023/12/26 04:01:43;;;;;;;4.38;2.33;;;10.30;93.70;;;8.92;100.00;100256.50;4982543;28;20066;-78
2023/12/26 04:04:10;;;;;;;9.73;2.20;;;10.30;95.00;;;9.23;100.00;100303.16;4976982;28;20531;-78
2023/12/26 04:06:38;;;;;;;9.85;2.75;;;10.30;38.80;;;9.14;100.00;100288.44;4970954;28;20149;-78
2023/12/26 04:09:05;;;;;;;6.35;2.00;;;10.40;27.50;;;9.16;100.00;100283.16;4969371;28;20045;-78
2023/12/26 04:11:33;;;;;;;5.40;2.40;;;10.50;32.90;;;9.15;100.00;100282.28;4976694;28;20042;-78
2023/12/26 04:14:00;;;;;;;3.85;2.45;;;10.40;1.00;;;9.05;100.00;100255.38;4959904;28;20508;-78
2023/12/26 04:16:28;;;;;;;10.20;2.28;;;10.40;1.00;;;9.14;100.00;100256.09;4976242;28;20049;-78
2023/12/26 04:18:55;;;;;;;5.03;2.40;;;10.40;1.00;;;9.24;100.00;100268.13;5008156;28;20530;-78
2023/12/26 04:21:22;;;;;;;4.70;2.33;;;10.40;1.00;;;9.24;100.00;100277.78;4991771;28;20076;-79
2023/12/26 04:23:49;;;;;;;7.15;2.30;;;10.40;1.00;;;9.16;100.00;100259.53;4976144;28;20076;-78
2023/12/26 04:26:19;;;;;;;5.68;2.90;;;10.40;1.00;;;9.02;100.00;100242.31;4971279;28;20347;-78
2023/12/26 04:28:46;;;;;;;5.38;2.15;;;10.30;1.00;;;9.20;100.00;100264.69;4974483;28;20104;-79
2023/12/26 04:31:13;;;;;;;6.20;2.00;;;10.30;1.00;;;9.05;100.00;100263.25;4992682;28;20052;-78
2023/12/26 04:33:41;;;;;;;6.32;2.35;;;10.30;1.00;;;9.21;100.00;100270.81;4991269;28;20471;-79
2023/12/26 04:36:08;;;;;;;5.00;2.65;;;10.30;1.00;;;9.01;100.00;100251.06;5007972;28;20042;-78
2023/12/26 04:38:35;;;;;;;6.65;2.83;;;10.30;1.00;;;9.00;100.00;100256.34;4973597;28;20429;-79
2023/12/26 04:41:08;;;;;;;12.15;4.18;;;10.20;1.00;;;9.03;100.00;100261.53;4991643;28;20038;-78
2023/12/26 04:43:35;;;;;;;7.70;2.40;;;10.20;1.00;;;8.90;100.00;100261.78;4975823;28;20050;-78
2023/12/26 04:46:03;;;;;;;6.50;2.22;;;10.20;1.00;;;8.72;100.00;100214.88;4992635;28;20104;-78
2023/12/26 04:48:30;;;;;;;8.48;4.15;;;10.20;1.00;;;8.91;100.00;100260.88;4987968;28;20051;-79
2023/12/26 04:50:57;;;;;;;3.97;2.40;;;10.20;1.00;;;8.79;100.00;100259.34;4959694;28;20042;-79
2023/12/26 04:53:25;;;;;;;5.03;2.90;;;10.10;15.40;;;8.98;100.00;100293.13;4975603;28;20141;-78
2023/12/26 04:55:54;;;;;;;9.25;3.15;;;10.10;80.30;;;8.96;100.00;100300.13;4991870;28;20054;-78
2023/12/26 04:58:21;;;;;;;9.07;2.50;;;10.00;77.80;;;8.86;100.00;100288.94;4977002;28;20536;-78
2023/12/26 05:00:49;;;;;;;7.15;2.78;;;10.00;75.10;;;8.97;100.00;100286.13;4990533;28;20053;-79
2023/12/26 05:03:16;;;;;;;6.95;2.53;;;10.10;80.70;;;8.86;100.00;100267.97;4992186;28;20045;-78
2023/12/26 05:05:44;;;;;;;8.50;2.88;;;10.00;48.60;;;8.80;100.00;100282.06;4979375;28;20127;-78
2023/12/26 05:08:11;;;;;;;6.03;2.40;;;10.00;14.40;;;8.69;100.00;100243.81;4976503;28;20612;-78
2023/12/26 05:10:39;;;;;;;8.10;2.75;;;10.00;94.70;;;8.90;100.00;100295.91;4962686;28;20687;-79
2023/12/26 05:13:06;;;;;;;6.30;2.50;;;10.00;94.00;;;8.66;100.00;100244.72;4964531;28;20038;-78
2023/12/26 05:15:35;;;;;;;8.15;2.40;;;10.00;94.60;;;8.80;100.00;100282.06;4994926;28;20424;-78
2023/12/26 05:18:03;;;;;;;8.10;2.42;;;10.00;80.70;;;8.80;100.00;100275.97;4980186;28;20046;-78
2023/12/26 05:20:31;;;;;;;7.65;2.92;;;10.00;99.90;;;8.82;100.00;100295.16;4978129;28;20448;-78
2023/12/26 05:22:58;;;;;;;6.30;2.38;;;10.00;99.90;;;8.69;100.00;100275.28;4977966;28;20814;-78
2023/12/26 05:25:27;;;;;;;6.95;2.65;;;9.90;99.90;;;8.86;100.00;100299.44;4956251;28;20084;-77
2023/12/26 05:27:55;;;;;;;4.57;2.65;;;9.90;99.90;;;8.74;100.00;100283.91;4993274;28;20046;-78
2023/12/26 05:30:22;;;;;;;5.10;2.25;;;10.00;99.90;;;8.85;100.00;100308.22;4984001;28;20060;-77
2023/12/26 05:32:50;;;;;;;6.32;2.15;;;9.90;99.90;;;8.77;100.00;100329.34;4973742;28;20050;-77
2023/12/26 05:35:20;;;;;;;11.38;2.70;;;9.90;99.90;;;8.60;100.00;100321.78;4991146;28;20049;-78
2023/12/26 05:37:48;;;;;;;6.65;2.80;;;9.40;99.90;;;8.71;100.00;100332.06;4984553;28;20065;-77
2023/12/26 05:40:15;;;;;;;8.57;2.55;;;9.90;99.90;;;8.76;100.00;100329.38;4968587;28;20053;-77
2023/12/26 05:42:42;;;;;;;6.05;2.72;;;9.90;99.90;;;8.70;100.00;100324.22;4992492;28;20041;-77
2023/12/26 05:45:10;;;;;;;6.25;2.50;;;9.90;99.90;;;8.67;100.00;100319.91;4974518;28;20603;-77
2023/12/26 05:47:40;;;;;;;5.80;2.30;;;10.40;99.90;;;8.76;100.00;100339.88;4976068;28;20479;-78
2023/12/26 05:50:09;;;;;;;5.03;2.58;;;9.90;99.90;;;8.78;100.00;100331.06;4992020;28;20447;-77
2023/12/26 05:52:36;;;;;;;6.18;2.40;;;9.90;99.90;;;8.74;100.00;100352.13;4978992;28;20057;-79
2023/12/26 05:55:04;;;;;;;6.53;2.70;;;9.90;99.90;;;8.54;100.00;100302.66;4995247;28;20763;-78
2023/12/26 05:57:31;;;;;;;8.82;3.08;;;9.90;99.90;;;8.73;100.00;100338.16;4986817;28;20041;-78
2023/12/26 05:59:59;;;;;;;4.97;2.38;;;9.90;99.90;;;8.75;100.00;100354.72;4985222;28;20129;-78
2023/12/26 06:02:27;;;;;;;6.82;2.50;;;9.90;99.90;;;8.55;100.00;100333.22;4993608;28;20891;-79
2023/12/26 06:04:54;;;;;;;7.13;2.65;;;9.90;99.90;;;8.72;100.00;100354.78;4993780;28;20050;-78
2023/12/26 06:07:21;;;;;;;8.85;2.50;;;9.80;99.90;;;8.83;100.00;100348.50;5011986;28;20115;-79
2023/12/26 06:09:48;;;;;;;5.47;2.40;;;9.90;99.90;;;8.76;100.00;100355.63;4977717;28;20041;-78
2023/12/26 06:12:15;;;;;;;4.72;2.28;;;9.10;99.90;;;8.55;100.00;100333.22;4976956;28;20046;-79
2023/12/26 06:14:44;;;;;;;5.25;2.50;;;9.80;99.90;;;8.82;100.00;100371.25;4986912;28;20145;-78
2023/12/26 06:17:11;;;;;;;6.82;2.53;;;9.90;99.90;;;8.69;100.00;100369.69;4992398;28;20648;-78
2023/12/26 06:19:38;;;;;;;8.07;3.67;;;9.90;99.90;;;8.69;100.00;100364.47;4977392;28;20060;-78
2023/12/26 06:22:07;;;;;;;7.50;4.07;;;10.00;99.90;;;8.69;100.00;100372.31;4974540;28;20061;-78
2023/12/26 06:24:34;;;;;;;10.82;4.35;;;9.90;99.90;;;8.20;100.00;100315.38;4989503;28;20072;-78
2023/12/26 06:27:02;;;;;;;9.00;3.00;;;9.80;99.90;;;8.65;100.00;100361.00;4977383;28;20125;-79
2023/12/26 06:29:29;;;;;;;6.28;2.47;;;9.90;99.90;;;8.87;100.00;100389.53;4961638;28;20112;-78
2023/12/26 06:31:57;;;;;;;6.40;2.45;;;9.80;99.90;;;8.81;100.00;100385.25;4975432;28;20481;-78
2023/12/26 06:34:25;;;;;;;5.35;2.22;;;9.90;99.90;;;8.61;100.00;100347.09;4976153;28;20073;-78
2023/12/26 06:36:52;;;;;;;5.93;2.50;;;10.20;99.90;;;8.65;100.00;100358.38;4959768;28;20056;-78
2023/12/26 06:39:19;;;;;;;9.27;2.85;;;9.90;99.90;;;8.79;100.00;100385.25;4968241;28;20053;-77
2023/12/26 06:41:48;;;;;;;9.63;2.60;;;9.90;99.90;;;8.76;100.00;100381.84;4973882;28;20073;-78
2023/12/26 06:44:16;;;;;;;8.27;2.90;;;9.90;99.90;;;8.71;100.00;100371.41;4971689;28;20054;-78
2023/12/26 06:46:43;;;;;;;5.50;2.53;;;10.00;99.90;;;8.81;100.00;100408.88;4965801;28;20079;-78
2023/12/26 06:49:16;;;;;;;6.38;2.33;;;9.90;99.90;;;8.84;100.00;100410.59;4970899;28;20045;-78
2023/12/26 06:51:46;;;;;;;5.43;2.65;;;9.90;99.90;;;8.66;100.00;100394.22;4976473;28;20531;-77
2023/12/26 06:54:14;;;;;;;4.75;2.30;;;9.90;99.90;;;8.84;100.00;100423.69;4990911;28;20046;-78
2023/12/26 06:56:42;;;;;;;11.27;2.70;;;9.90;99.90;;;8.80;100.00;100415.84;4978266;28;20050;-78
2023/12/26 06:59:12;;;;;;;6.93;3.05;;;9.90;99.90;;;8.79;100.00;100414.13;4978586;28;20056;-78
2023/12/26 07:01:48;;;;;;;8.13;2.70;;;9.90;99.90;;;8.69;100.00;100396.81;5008376;28;20077;-78
2023/12/26 07:04:15;;;;;;;14.55;6.75;;;10.00;99.90;;;8.74;100.00;100415.09;5007904;28;20092;-79
2023/12/26 07:06:42;;;;;;;7.50;2.78;;;10.00;99.90;;;8.81;100.00;100427.22;4951126;28;20047;-78
2023/12/26 07:09:09;;;;;;;5.07;2.67;;;10.00;99.90;;;8.85;100.00;100430.69;4975500;28;20033;-78
2023/12/26 07:11:36;;;;;;;7.78;2.80;;;10.00;99.90;;;8.49;100.00;100376.09;4992463;28;20050;-78
2023/12/26 07:14:03;;;;;;;6.35;2.97;;;10.00;99.90;;;8.90;100.00;100437.59;4983944;28;20145;-77
2023/12/26 07:16:33;;;;;;;7.03;2.97;;;10.10;99.90;;;8.93;100.00;100423.53;4989266;28;20085;-78
2023/12/26 07:19:00;;;;;;;4.23;2.47;;;10.10;94.40;;;8.93;100.00;100423.53;4994924;28;20050;-77
2023/12/26 07:21:28;;;;;;;6.82;2.50;;;10.30;35.80;;;9.11;100.00;100440.75;4972666;28;20038;-78
2023/12/26 07:23:55;;;;;;;8.52;2.80;;;10.20;1.00;;;9.22;100.00;100451.94;4974490;28;20056;-77
2023/12/26 07:26:25;;;;;;;7.03;3.30;;;10.30;99.90;;;9.21;100.00;100444.97;4968201;28;20054;-77
2023/12/26 07:28:52;;;;;;;14.20;4.03;;;10.40;99.90;;;9.32;100.00;100460.53;4973353;28;20050;-77
2023/12/26 07:31:23;;;;;;;11.13;2.58;;;10.40;99.90;;;9.19;100.00;100454.59;4990758;28;20432;-78
2023/12/26 07:33:53;;;;;;;8.63;2.30;;;10.40;99.90;;;9.28;100.00;100457.97;4975252;28;20128;-79
2023/12/26 07:36:20;;;;;;;7.28;2.90;;;10.70;99.90;;;9.16;100.00;100451.19;4958191;28;20837;-78
2023/12/26 07:38:48;;;;;;;6.97;2.90;;;10.40;97.70;;;9.22;100.00;100469.44;4973291;28;20093;-78
2023/12/26 07:41:15;;;;;;;8.43;2.70;;;10.40;99.90;;;9.21;100.00;100458.09;4984163;28;20137;-78
2023/12/26 07:43:45;;;;;;;10.90;2.70;;;10.40;1.00;;;9.46;100.00;100476.03;4976183;28;20443;-78
2023/12/26 07:46:12;;;;;;;;;;;10.50;1.00;;;9.38;100.00;100459.56;4988368;28;20076;-77
2023/12/26 07:48:39;;;;;;;11.98;3.20;;;10.50;1.00;;;9.24;100.00;100444.03;4979129;28;19952;-77
2023/12/26 07:51:10;;;;;;;11.57;3.00;;;10.50;1.00;;;9.42;100.00;100483.97;4990404;28;20061;-78
2023/12/26 07:53:37;;;;;;;8.98;3.50;;;10.50;1.00;;;9.43;100.00;100499.72;4973552;28;20039;-78
2023/12/26 07:56:04;;;;;;;9.75;3.17;;;10.50;1.00;;;9.36;100.00;100474.44;4992937;28;20097;-78
2023/12/26 07:58:32;;;;;;;11.57;4.38;;;10.50;99.90;;;9.21;100.00;100437.09;4992475;28;20074;-79
2023/12/26 08:01:04;;;;;;;10.25;4.25;;;10.50;99.90;;;9.46;100.00;100504.06;4974853;28;20050;-80
2023/12/26 08:03:32;;;;;;;8.90;4.18;;;10.50;99.90;;;9.01;100.00;100424.28;4999377;28;20046;-79
2023/12/26 08:06:03;;;;;;;10.85;3.65;;;10.50;99.90;;;9.40;100.00;100493.66;4974821;28;20041;-79
2023/12/26 08:08:30;;;;;;;10.88;3.42;;;10.60;99.90;;;9.51;100.00;100533.72;4975524;28;20070;-78
2023/12/26 08:10:58;;;;;;;12.07;4.75;;;10.60;99.90;;;9.46;100.00;100512.78;4985918;28;20042;-79
2023/12/26 08:13:27;;;;;;;12.73;5.20;;;10.60;84.10;;;9.17;100.00;100472.13;4975418;28;20417;-78
2023/12/26 08:15:57;;;;;;;11.73;3.33;;;10.60;9.80;;;9.62;100.00;100534.44;4984474;28;20046;-80
2023/12/26 08:18:24;;;;;;;10.82;4.38;;;10.60;1.00;;;9.55;100.00;100524.91;4980625;28;20065;-79
2023/12/26 08:20:54;;;;;;;10.07;3.65;;;10.60;1.00;;;9.58;100.00;100540.59;4965832;28;20066;-78
2023/12/26 08:23:21;;;;;;;11.63;3.58;;;10.70;1.00;;;9.51;100.00;100510.09;4968607;28;20144;-78
2023/12/26 08:25:48;;;;;;;9.32;3.33;;;10.60;1.00;;;9.30;100.00;100511.31;4990161;28;20062;-79
2023/12/26 08:28:16;;;;;;;9.55;3.90;;;10.60;1.00;;;9.36;100.00;100526.97;4992150;28;20065;-78
2023/12/26 08:30:43;;;;;;;7.32;3.50;;;10.50;2.50;;;9.39;100.00;100534.81;4974195;28;20043;-78
2023/12/26 08:33:10;;;;;;;9.38;3.05;;;10.50;87.20;;;9.45;100.00;100552.22;4989827;28;20042;-79
2023/12/26 08:35:37;;;;;;;11.57;4.53;;;10.50;99.90;;;9.35;100.00;100549.75;4959581;28;20085;-79
2023/12/26 08:38:04;;;;;;;6.93;2.65;;;10.50;99.90;;;9.24;100.00;100535.06;4976843;28;20084;-79
2023/12/26 08:40:32;;;;;;;10.77;2.95;;;10.50;1.00;;;9.17;100.00;100556.13;4974868;28;20053;-79
2023/12/26 08:42:59;;;;;;;9.65;3.83;;;10.50;1.00;;;9.39;100.00;100583.81;4965909;28;20463;-78
2023/12/26 08:45:26;;;;;;;8.73;2.85;;;10.50;23.60;;;9.47;100.00;100579.34;4973706;28;20042;-78
2023/12/26 08:47:53;;;;;;;9.02;3.70;;;10.50;99.90;;;9.45;100.00;100591.63;4973992;28;20064;-78
2023/12/26 08:50:21;;;;;;;12.93;4.18;;;10.50;99.90;;;9.19;100.00;100558.75;4974137;28;20477;-78
2023/12/26 08:52:51;;;;;;;13.45;4.55;;;10.40;99.90;;;9.27;100.00;100561.25;4973981;28;20128;-78
2023/12/26 08:55:18;;;;;;;10.07;4.07;;;10.40;99.90;;;9.31;100.00;100578.69;4973148;28;20096;-77
2023/12/26 08:57:45;;;;;;;13.50;3.72;;;10.50;1.00;;;9.15;100.00;100552.66;4973480;28;20223;-78
2023/12/26 09:00:14;;;;;;;10.90;4.07;;;10.40;1.00;;;9.28;100.00;100581.38;4966478;28;20050;-78
2023/12/26 09:02:45;;;;;;;6.70;2.53;;;10.40;62.50;;;9.23;100.00;100586.69;4974093;28;20056;-78
2023/12/26 09:05:25;;;;;;;10.80;4.25;;;10.50;99.90;;;9.25;100.00;100584.06;4972030;28;20049;-78
2023/12/26 09:07:53;;;;;;;8.20;4.07;;;10.40;1.00;;;9.20;100.00;100586.75;4966269;28;20046;-79
2023/12/26 09:10:20;;;;;;;12.82;4.80;;;10.30;99.90;;;9.01;100.00;100558.13;4970893;28;20062;-79
2023/12/26 09:12:47;;;;;;;14.40;4.50;;;10.30;1.00;;;8.99;100.00;100583.53;4986601;28;20050;-78
2023/12/26 09:15:14;;;;;;;12.05;3.85;;;10.20;95.60;;;9.04;100.00;100607.97;4952785;28;20077;-78
2023/12/26 09:17:44;;;;;;;10.15;3.58;;;10.20;99.90;;;9.01;100.00;100621.13;4985950;28;20058;-79
2023/12/26 09:20:14;;;;;;;10.00;3.58;;;10.10;99.90;;;8.53;100.00;100535.16;4985382;28;20057;-78
2023/12/26 09:22:42;;;;;;;9.38;3.03;;;10.10;99.90;;;8.90;100.00;100617.78;4974424;28;20128;-78
2023/12/26 09:25:12;;;;;;;9.07;3.85;;;10.40;99.90;;;8.93;100.00;100620.34;4950447;28;20046;-79
2023/12/26 09:27:42;;;;;;;8.48;3.20;;;10.10;99.90;;;8.85;100.00;100612.56;4967242;28;20043;-79
2023/12/26 09:30:13;;;;;;;8.20;4.38;;;10.00;1.00;;;8.89;100.00;100639.66;4975184;28;20096;-80
2023/12/26 09:32:40;;;;;;;11.38;3.63;;;10.00;1.00;;;8.85;100.00;100623.06;4975724;28;20061;-79
2023/12/26 09:35:08;;;;;;;11.63;4.03;;;10.00;1.00;;;8.97;100.00;100657.94;4991956;28;20042;-79
2023/12/26 09:37:38;;;;;;;10.38;4.30;;;10.00;1.00;;;8.76;100.00;100639.81;4990014;28;20567;-79
2023/12/26 09:40:08;;;;;;;10.07;3.58;;;10.00;1.00;;;9.01;100.00;100686.75;4990513;28;20050;-79
2023/12/26 09:42:35;;;;;;;11.93;4.38;;;10.00;1.00;;;8.89;100.00;100660.66;5006462;28;20164;-79
2023/12/26 09:45:03;;;;;;;13.70;3.90;;;10.00;1.00;;;8.80;100.00;100659.00;4973367;28;20038;-81
2023/12/26 09:47:32;;;;;;;8.15;3.53;;;10.00;1.00;;;8.94;100.00;100691.19;4989312;28;20060;-79
2023/12/26 09:49:59;;;;;;;10.63;3.05;;;10.00;1.00;;;8.86;100.00;100672.03;4989663;28;20058;-81
2023/12/26 09:52:32;;;;;;;10.57;4.00;;;10.00;1.00;;;8.95;100.00;100694.69;4994564;28;20053;-79
2023/12/26 09:55:00;;;;;;;6.43;4.00;;;10.10;1.00;;;8.91;100.00;100688.63;4978384;28;20042;-79
2023/12/26 09:57:27;;;;;;;6.95;3.83;;;10.00;1.00;;;8.90;100.00;100681.63;4962436;28;20088;-78
2023/12/26 09:59:55;;;;;;;7.70;3.55;;;10.00;1.00;;;8.75;100.00;100673.94;4982948;28;20058;-79
2023/12/26 10:02:22;;;;;;;11.68;4.07;;;10.10;1.00;;;8.67;100.00;100666.16;4978501;28;20066;-79
2023/12/26 10:04:50;;;;;;;16.52;4.25;;;10.20;1.00;;;8.88;100.00;100709.63;4985260;28;20038;-77
2023/12/26 10:07:18;;;;;;;8.65;3.97;;;10.00;1.00;;;8.64;100.00;100666.16;4977999;28;20130;-81
2023/12/26 10:09:45;;;;;;;10.57;3.78;;;10.10;1.00;;;8.91;100.00;100716.59;4975299;28;20074;-79
2023/12/26 10:12:13;;;;;;;11.35;4.53;;;10.00;1.00;;;8.70;100.00;100683.59;4965130;28;20050;-80
2023/12/26 10:14:40;;;;;;;7.88;4.10;;;10.00;1.00;;;8.82;100.00;100696.59;4995341;28;20034;-80
2023/12/26 10:17:08;;;;;;;10.13;3.20;;;9.90;1.00;;;8.33;100.00;100619.28;4984272;28;20046;-79
2023/12/26 10:19:37;;;;;;;12.15;3.80;;;10.00;1.00;;;8.88;100.00;100706.16;4986924;28;20134;-79